Time;durP1;ratioP1;P1;durP2;ratioP2;P2;SDS_P1;SDS_P2;PMS_P1;PMS_P2;Temp;Humidity;BMP_temperature;BMP_pressure;BME280_temperature;BME280_humidity;BME280_pressure;Samples;Min_cycle;Max_cycle;Signal;HPM_P1;HPM_P2
2020/12/23 00:01:40;;;;;;;0.32;0.32;;;8.70;99.90;;;;;;4398568;32;20066;-58
2020/12/23 00:04:05;;;;;;;0.30;0.30;;;8.70;99.90;;;;;;4398510;32;20061;-58
2020/12/23 00:06:34;;;;;;;0.40;0.40;;;8.70;99.90;;;;;;4387275;32;20113;-59
2020/12/23 00:09:02;;;;;;;0.30;0.30;;;8.70;99.90;;;;;;4382607;32;20102;-55
2020/12/23 00:11:28;;;;;;;4.78;0.77;;;8.70;99.90;;;;;;4392230;32;20058;-58
2020/12/23 00:13:53;;;;;;;0.52;0.50;;;8.80;99.90;;;;;;4399201;32;20425;-58
2020/12/23 00:16:19;;;;;;;0.35;0.35;;;8.80;99.90;;;;;;4399264;32;20078;-58
2020/12/23 00:18:44;;;;;;;0.30;0.30;;;8.70;99.90;;;;;;4397977;32;20158;-58
2020/12/23 00:21:10;;;;;;;0.45;0.37;;;8.70;99.90;;;;;;4398531;32;20114;-59
2020/12/23 00:23:36;;;;;;;0.30;0.30;;;8.70;99.90;;;;;;4397284;32;20058;-59
2020/12/23 00:26:01;;;;;;;1.75;0.93;;;8.70;99.90;;;;;;4396995;32;20108;-56
2020/12/23 00:28:27;;;;;;;2.83;0.65;;;8.70;99.90;;;;;;4399479;32;20150;-58
2020/12/23 00:30:52;;;;;;;6.30;0.40;;;8.70;99.90;;;;;;4401161;32;20074;-54
2020/12/23 00:33:18;;;;;;;11.25;0.80;;;8.60;99.90;;;;;;4401851;32;20120;-59
2020/12/23 00:35:44;;;;;;;0.50;0.50;;;8.60;99.90;;;;;;4400164;32;20055;-57
2020/12/23 00:38:09;;;;;;;0.30;0.30;;;8.50;99.90;;;;;;4401288;32;20063;-57
2020/12/23 00:40:34;;;;;;;0.40;0.40;;;8.60;99.90;;;;;;4401540;32;20058;-56
2020/12/23 00:43:00;;;;;;;20.73;0.45;;;8.50;99.90;;;;;;4401085;32;20073;-55
2020/12/23 00:45:25;;;;;;;0.30;0.30;;;8.50;99.90;;;;;;4399936;32;20058;-58
2020/12/23 00:47:51;;;;;;;0.20;0.20;;;8.60;99.90;;;;;;4401272;32;20442;-58
2020/12/23 00:50:16;;;;;;;0.30;0.30;;;8.70;99.90;;;;;;4400728;32;20065;-59
2020/12/23 00:52:42;;;;;;;0.20;0.20;;;8.60;99.90;;;;;;4400523;32;20074;-59
2020/12/23 00:55:08;;;;;;;0.45;0.45;;;8.60;99.90;;;;;;4400698;32;20061;-57
2020/12/23 00:57:34;;;;;;;0.50;0.50;;;8.60;99.90;;;;;;4401286;32;20062;-57
2020/12/23 00:59:59;;;;;;;0.57;0.57;;;8.70;99.90;;;;;;4401107;32;20054;-59
2020/12/23 01:02:25;;;;;;;0.30;0.30;;;8.70;99.90;;;;;;4400250;32;20070;-59
2020/12/23 01:04:50;;;;;;;1.30;1.00;;;8.70;99.90;;;;;;4399922;32;20071;-59
2020/12/23 01:07:16;;;;;;;0.45;0.45;;;8.70;99.90;;;;;;4385755;32;20070;-57
2020/12/23 01:09:41;;;;;;;0.20;0.20;;;8.70;99.90;;;;;;4385761;32;20131;-59
2020/12/23 01:12:06;;;;;;;0.30;0.30;;;8.60;99.90;;;;;;4398884;32;20126;-58
2020/12/23 01:14:32;;;;;;;0.30;0.30;;;8.60;99.90;;;;;;4400159;32;20062;-58
2020/12/23 01:16:57;;;;;;;0.40;0.40;;;8.50;99.90;;;;;;4400914;32;20405;-58
2020/12/23 01:19:23;;;;;;;0.28;0.28;;;8.40;99.90;;;;;;4400810;32;20062;-58
2020/12/23 01:21:48;;;;;;;0.30;0.30;;;8.40;99.90;;;;;;4400955;32;20058;-57
2020/12/23 01:24:14;;;;;;;0.82;0.82;;;8.30;99.90;;;;;;4399658;32;20121;-59
2020/12/23 01:26:39;;;;;;;2.33;0.88;;;8.40;99.90;;;;;;4386443;32;20079;-58
2020/12/23 01:29:05;;;;;;;0.30;0.30;;;8.50;99.90;;;;;;4400021;32;20076;-59
2020/12/23 01:31:30;;;;;;;1.10;0.62;;;8.40;99.90;;;;;;4399676;32;20082;-59
2020/12/23 01:33:56;;;;;;;0.20;0.20;;;8.30;99.90;;;;;;4399901;32;20058;-58
2020/12/23 01:36:21;;;;;;;0.30;0.30;;;8.30;99.90;;;;;;4399909;32;20078;-57
2020/12/23 01:38:47;;;;;;;0.77;0.77;;;8.20;99.90;;;;;;4401124;32;20122;-59
2020/12/23 01:41:12;;;;;;;6.12;1.12;;;8.30;99.90;;;;;;4399449;32;20058;-58
2020/12/23 01:43:38;;;;;;;0.30;0.30;;;8.30;99.90;;;;;;4400831;32;20516;-58
2020/12/23 01:46:04;;;;;;;0.80;0.80;;;8.40;99.90;;;;;;4399156;32;20070;-57
2020/12/23 01:48:31;;;;;;;0.50;0.50;;;8.50;99.90;;;;;;4398227;32;20142;-57
2020/12/23 01:50:59;;;;;;;1.70;0.55;;;8.40;99.90;;;;;;4399886;32;20205;-58
2020/12/23 01:53:26;;;;;;;0.40;0.40;;;8.50;99.90;;;;;;4399218;32;20058;-58
2020/12/23 01:55:52;;;;;;;1.55;0.55;;;8.60;99.90;;;;;;4400065;32;20527;-58
2020/12/23 01:58:18;;;;;;;0.30;0.30;;;8.50;99.90;;;;;;4400361;32;20050;-57
2020/12/23 02:00:43;;;;;;;0.62;0.47;;;8.50;99.90;;;;;;4399434;32;20070;-58
2020/12/23 02:03:10;;;;;;;1.87;0.47;;;8.50;99.90;;;;;;4400672;32;20078;-59
2020/12/23 02:05:37;;;;;;;1.65;0.40;;;8.30;99.90;;;;;;4380874;32;20079;-58
2020/12/23 02:08:03;;;;;;;2.65;0.62;;;8.10;99.90;;;;;;4383281;32;20555;-59
2020/12/23 02:10:29;;;;;;;0.25;0.25;;;8.10;99.90;;;;;;4387135;32;20085;-57
2020/12/23 02:12:54;;;;;;;0.30;0.30;;;8.20;99.90;;;;;;4400089;32;20083;-55
2020/12/23 02:15:20;;;;;;;8.10;1.05;;;8.30;99.90;;;;;;4399383;32;20078;-59
2020/12/23 02:17:47;;;;;;;6.82;1.27;;;8.20;99.90;;;;;;4392395;32;20162;-59
2020/12/23 02:20:14;;;;;;;0.30;0.30;;;8.30;99.90;;;;;;4383992;32;20067;-58
2020/12/23 02:22:40;;;;;;;0.30;0.30;;;8.40;99.90;;;;;;4384987;32;20127;-59
2020/12/23 02:25:07;;;;;;;3.20;1.15;;;8.50;99.90;;;;;;4384174;32;20079;-57
2020/12/23 02:27:33;;;;;;;0.20;0.20;;;8.60;99.90;;;;;;4370998;32;20062;-59
2020/12/23 02:29:59;;;;;;;1.37;0.60;;;8.60;99.90;;;;;;4385674;32;20069;-56
2020/12/23 02:32:26;;;;;;;1.25;0.73;;;8.60;99.90;;;;;;4385416;32;20055;-55
2020/12/23 02:34:52;;;;;;;0.40;0.40;;;8.50;99.90;;;;;;4383624;32;20066;-59
2020/12/23 02:37:19;;;;;;;0.20;0.20;;;8.50;99.90;;;;;;4382774;32;20074;-58
2020/12/23 02:39:49;;;;;;;0.25;0.25;;;8.60;99.90;;;;;;4382731;32;20055;-59
2020/12/23 02:42:15;;;;;;;1.87;0.40;;;8.50;99.90;;;;;;4385039;32;20114;-58
2020/12/23 02:44:41;;;;;;;0.75;0.75;;;8.40;99.90;;;;;;4371401;32;20146;-58
2020/12/23 02:47:10;;;;;;;0.30;0.30;;;8.40;99.90;;;;;;4383611;32;20070;-59
2020/12/23 02:49:37;;;;;;;0.35;0.35;;;8.40;99.90;;;;;;4371797;32;20501;-59
2020/12/23 02:52:02;;;;;;;0.50;0.50;;;8.40;99.90;;;;;;4384466;32;20074;-58
2020/12/23 02:54:28;;;;;;;0.30;0.30;;;8.60;99.90;;;;;;4382957;32;20062;-58
2020/12/23 02:56:53;;;;;;;0.30;0.30;;;8.60;99.90;;;;;;4384014;32;20066;-58
2020/12/23 02:59:19;;;;;;;0.30;0.30;;;8.50;99.90;;;;;;4384849;32;20066;-59
2020/12/23 03:01:44;;;;;;;0.40;0.40;;;8.40;99.90;;;;;;4383769;32;20422;-59
2020/12/23 03:04:10;;;;;;;4.72;1.27;;;8.40;99.90;;;;;;4383702;32;20074;-58
2020/12/23 03:06:36;;;;;;;0.60;0.60;;;8.30;99.90;;;;;;4381401;32;20429;-59
2020/12/23 03:09:04;;;;;;;0.30;0.30;;;8.20;99.90;;;;;;4399600;32;20054;-59
2020/12/23 03:11:30;;;;;;;0.98;0.68;;;8.20;99.90;;;;;;4399185;32;20066;-57
2020/12/23 03:13:55;;;;;;;0.20;0.20;;;8.20;99.90;;;;;;4398794;32;20098;-59
2020/12/23 03:16:21;;;;;;;2.53;0.95;;;8.30;99.90;;;;;;4398053;32;20507;-58
2020/12/23 03:18:47;;;;;;;0.30;0.30;;;8.20;99.90;;;;;;4373336;32;20082;-58
2020/12/23 03:21:12;;;;;;;0.62;0.55;;;8.20;99.90;;;;;;4384725;32;20067;-58
2020/12/23 03:23:38;;;;;;;1.87;1.73;;;8.20;99.90;;;;;;4383516;32;20091;-59
2020/12/23 03:26:04;;;;;;;0.40;0.40;;;8.30;99.90;;;;;;4383943;32;20175;-57
2020/12/23 03:28:31;;;;;;;0.73;0.60;;;8.30;99.90;;;;;;4382656;32;20058;-59
2020/12/23 03:30:57;;;;;;;0.30;0.30;;;8.30;99.90;;;;;;4383804;32;20083;-57
2020/12/23 03:33:23;;;;;;;2.47;0.68;;;8.20;99.90;;;;;;4383521;32;20082;-56
2020/12/23 03:35:49;;;;;;;1.65;0.68;;;8.20;99.90;;;;;;4370645;32;20059;-57
2020/12/23 03:38:14;;;;;;;1.90;0.52;;;8.10;99.90;;;;;;4383719;32;20118;-60
2020/12/23 03:40:40;;;;;;;0.82;0.82;;;8.10;99.90;;;;;;4384730;32;20075;-60
2020/12/23 03:43:05;;;;;;;0.43;0.43;;;8.20;99.90;;;;;;4382995;32;20121;-59
2020/12/23 03:45:31;;;;;;;0.80;0.80;;;8.20;99.90;;;;;;4383719;32;20085;-55
2020/12/23 03:47:57;;;;;;;1.20;1.10;;;8.30;99.90;;;;;;4383989;32;20085;-58
2020/12/23 03:50:22;;;;;;;0.90;0.85;;;8.30;99.90;;;;;;4383147;32;20105;-56
2020/12/23 03:52:48;;;;;;;0.30;0.30;;;8.40;99.90;;;;;;4383840;32;20407;-58
2020/12/23 03:55:14;;;;;;;5.15;0.85;;;8.40;99.90;;;;;;4383300;32;20727;-57
2020/12/23 03:57:39;;;;;;;0.45;0.45;;;8.40;99.90;;;;;;4382768;32;20134;-56
2020/12/23 04:00:07;;;;;;;11.40;0.40;;;8.40;99.90;;;;;;4382666;32;20059;-58
2020/12/23 04:02:32;;;;;;;0.47;0.40;;;8.40;99.90;;;;;;4383608;32;20418;-58
2020/12/23 04:04:58;;;;;;;0.30;0.30;;;8.40;99.90;;;;;;4386492;32;20070;-57
2020/12/23 04:07:24;;;;;;;1.55;0.77;;;8.40;99.90;;;;;;4401814;32;20066;-59
2020/12/23 04:09:49;;;;;;;0.45;0.45;;;8.50;99.90;;;;;;4400999;32;20069;-57
2020/12/23 04:12:15;;;;;;;0.30;0.30;;;8.40;99.90;;;;;;4400256;32;20066;-56
2020/12/23 04:14:40;;;;;;;0.22;0.22;;;8.50;99.90;;;;;;4401826;32;20061;-58
2020/12/23 04:17:06;;;;;;;0.30;0.30;;;8.50;99.90;;;;;;4400489;32;20116;-58
2020/12/23 04:19:31;;;;;;;16.52;0.98;;;8.40;99.90;;;;;;4386220;32;20067;-57
2020/12/23 04:21:57;;;;;;;0.50;0.50;;;8.40;99.90;;;;;;4387289;32;20074;-56
2020/12/23 04:24:22;;;;;;;0.30;0.30;;;8.40;99.90;;;;;;4385949;32;20067;-58
2020/12/23 04:26:48;;;;;;;0.30;0.30;;;8.40;99.90;;;;;;4386309;32;20074;-58
2020/12/23 04:29:13;;;;;;;0.30;0.30;;;8.50;99.90;;;;;;4386378;32;20058;-57
2020/12/23 04:31:39;;;;;;;0.50;0.50;;;8.50;99.90;;;;;;4386537;32;20527;-57
2020/12/23 04:34:04;;;;;;;1.35;0.75;;;8.40;99.90;;;;;;4384230;32;20075;-58
2020/12/23 04:36:30;;;;;;;0.45;0.43;;;8.30;99.90;;;;;;4385116;32;20082;-57
2020/12/23 04:38:55;;;;;;;8.52;1.05;;;8.20;99.90;;;;;;4385992;32;20118;-57
2020/12/23 04:41:21;;;;;;;0.50;0.50;;;8.20;99.90;;;;;;4385556;32;20107;-58
2020/12/23 04:43:46;;;;;;;0.47;0.47;;;8.20;99.90;;;;;;4386922;32;20070;-56
2020/12/23 04:46:18;;;;;;;1.85;1.10;;;8.20;99.90;;;;;;4386229;32;20583;-59
2020/12/23 04:48:46;;;;;;;0.30;0.30;;;8.20;99.90;;;;;;4372611;32;20125;-59
2020/12/23 04:51:15;;;;;;;0.30;0.30;;;8.20;99.90;;;;;;4385235;32;20118;-59
2020/12/23 04:53:41;;;;;;;0.30;0.30;;;8.20;99.90;;;;;;4385989;32;20067;-58
2020/12/23 04:56:06;;;;;;;0.22;0.22;;;8.20;99.90;;;;;;4384418;32;20062;-58
2020/12/23 04:58:32;;;;;;;0.20;0.20;;;8.20;99.90;;;;;;4385625;32;20099;-59
2020/12/23 05:00:57;;;;;;;0.60;0.60;;;8.30;99.90;;;;;;4386795;32;20398;-57
2020/12/23 05:03:23;;;;;;;4.43;0.60;;;8.30;99.90;;;;;;4385952;32;20073;-58
2020/12/23 05:05:48;;;;;;;0.30;0.30;;;8.30;99.90;;;;;;4391596;32;20128;-58
2020/12/23 05:08:14;;;;;;;0.52;0.52;;;8.20;99.90;;;;;;4400420;32;20070;-57
2020/12/23 05:10:41;;;;;;;2.92;0.55;;;8.20;99.90;;;;;;4399911;32;20066;-55
2020/12/23 05:13:07;;;;;;;0.22;0.22;;;8.20;99.90;;;;;;4398790;32;20134;-58
2020/12/23 05:15:33;;;;;;;0.52;0.52;;;8.20;99.90;;;;;;4400713;32;20077;-59
2020/12/23 05:18:01;;;;;;;0.60;0.60;;;8.20;99.90;;;;;;4392660;32;20121;-53
2020/12/23 05:20:27;;;;;;;0.40;0.40;;;8.30;99.90;;;;;;4385262;32;20162;-57
2020/12/23 05:22:52;;;;;;;0.43;0.43;;;8.40;99.90;;;;;;4385126;32;20524;-58
2020/12/23 05:25:18;;;;;;;1.20;0.73;;;8.40;99.90;;;;;;4384539;32;20178;-54
2020/12/23 05:27:47;;;;;;;5.25;0.90;;;8.30;99.90;;;;;;4384637;32;20126;-57
2020/12/23 05:30:13;;;;;;;53.35;3.33;;;8.20;99.90;;;;;;4384860;32;20074;-59
2020/12/23 05:32:40;;;;;;;0.30;0.30;;;8.20;99.90;;;;;;4385922;32;20519;-58
2020/12/23 05:35:06;;;;;;;0.37;0.37;;;8.30;99.90;;;;;;4386053;32;20082;-58
2020/12/23 05:37:32;;;;;;;2.20;0.65;;;8.30;99.90;;;;;;4384260;32;20071;-58
2020/12/23 05:39:59;;;;;;;0.75;0.75;;;8.40;99.90;;;;;;4384199;32;20058;-58
2020/12/23 05:42:26;;;;;;;1.45;0.90;;;8.30;99.90;;;;;;4384711;32;20110;-57
2020/12/23 05:44:53;;;;;;;3.03;0.80;;;8.30;99.90;;;;;;4383845;32;20082;-57
2020/12/23 05:47:26;;;;;;;0.30;0.30;;;8.30;99.90;;;;;;4384056;32;20066;-59
2020/12/23 05:49:53;;;;;;;6.18;0.80;;;8.40;99.90;;;;;;4384889;32;20058;-56
2020/12/23 05:52:21;;;;;;;4.30;1.15;;;8.30;99.90;;;;;;4384563;32;20402;-59
2020/12/23 05:54:51;;;;;;;14.50;0.68;;;8.30;99.90;;;;;;4383920;32;20076;-57
2020/12/23 05:57:16;;;;;;;10.93;1.25;;;8.40;99.90;;;;;;4372404;32;20508;-58
2020/12/23 05:59:42;;;;;;;0.45;0.45;;;8.40;99.90;;;;;;4384708;32;20166;-56
2020/12/23 06:02:11;;;;;;;4.35;1.37;;;8.40;99.90;;;;;;4388335;32;20173;-58
2020/12/23 06:04:41;;;;;;;0.60;0.60;;;8.50;99.90;;;;;;4399641;32;20433;-59
2020/12/23 06:07:07;;;;;;;0.80;0.77;;;8.50;99.90;;;;;;4400659;32;20057;-57
2020/12/23 06:09:38;;;;;;;0.30;0.30;;;8.50;99.90;;;;;;4388631;32;20062;-58
2020/12/23 06:12:21;;;;;;;0.65;0.65;;;8.50;99.90;;;;;;4396656;32;20098;-55
2020/12/23 06:14:56;;;;;;;0.50;0.50;;;8.50;99.90;;;;;;4400841;32;20410;-58
2020/12/23 06:17:23;;;;;;;0.22;0.22;;;8.50;99.90;;;;;;4395615;32;20067;-59
2020/12/23 06:19:52;;;;;;;0.65;0.65;;;8.50;99.90;;;;;;4371076;32;20109;-58
2020/12/23 06:22:18;;;;;;;0.95;0.95;;;8.40;99.90;;;;;;4383820;32;20128;-58
2020/12/23 06:24:44;;;;;;;9.35;1.10;;;8.40;99.90;;;;;;4383982;32;20063;-57
2020/12/23 06:27:10;;;;;;;7.68;0.47;;;8.50;99.90;;;;;;4383153;32;20508;-55
2020/12/23 06:29:39;;;;;;;0.30;0.30;;;8.50;99.90;;;;;;4383169;32;20129;-58
2020/12/23 06:32:07;;;;;;;0.30;0.30;;;8.50;99.90;;;;;;4384469;32;20066;-57
2020/12/23 06:34:35;;;;;;;1.08;0.98;;;8.40;99.90;;;;;;4384856;32;20074;-59
2020/12/23 06:37:14;;;;;;;0.45;0.45;;;8.40;99.90;;;;;;4371246;32;20507;-59
2020/12/23 06:39:41;;;;;;;0.98;0.50;;;8.30;99.90;;;;;;4371049;32;20058;-56
2020/12/23 06:42:09;;;;;;;2.05;1.23;;;8.30;99.90;;;;;;4371271;32;20448;-59
2020/12/23 06:44:44;;;;;;;2.90;1.48;;;8.20;99.90;;;;;;4384081;32;20535;-58
2020/12/23 06:47:12;;;;;;;1.02;0.80;;;8.10;99.90;;;;;;4384828;32;20654;-57
2020/12/23 06:49:46;;;;;;;0.80;0.68;;;8.10;99.90;;;;;;4382564;32;20062;-56
2020/12/23 06:52:29;;;;;;;1.08;0.70;;;8.10;99.90;;;;;;4384788;32;20110;-54
2020/12/23 06:55:00;;;;;;;1.55;0.93;;;8.10;99.90;;;;;;4382316;32;20061;-58
2020/12/23 06:57:44;;;;;;;0.60;0.60;;;8.10;99.90;;;;;;4389179;32;20070;-55
2020/12/23 07:00:28;;;;;;;2.20;1.27;;;8.20;99.90;;;;;;4399844;32;20053;-57
2020/12/23 07:02:57;;;;;;;0.52;0.52;;;8.10;99.90;;;;;;4399707;32;20054;-59
2020/12/23 07:05:25;;;;;;;0.57;0.57;;;8.10;99.90;;;;;;4397792;32;20132;-58
2020/12/23 07:08:00;;;;;;;1.85;0.52;;;8.20;99.90;;;;;;4399583;32;20079;-57
2020/12/23 07:10:29;;;;;;;0.40;0.40;;;8.20;99.90;;;;;;4396675;32;20515;-59
2020/12/23 07:13:00;;;;;;;0.60;0.60;;;8.00;99.90;;;;;;4383066;32;20066;-57
2020/12/23 07:15:30;;;;;;;0.37;0.37;;;8.10;99.90;;;;;;4385000;32;20187;-58
2020/12/23 07:18:15;;;;;;;1.65;0.65;;;8.00;99.90;;;;;;4389306;32;20106;-58
2020/12/23 07:20:45;;;;;;;0.40;0.40;;;8.10;99.90;;;;;;4400115;32;20066;-58
2020/12/23 07:23:12;;;;;;;2.12;0.93;;;8.10;99.90;;;;;;4399186;32;20058;-58
2020/12/23 07:25:45;;;;;;;3.42;1.02;;;8.00;99.90;;;;;;4398337;32;20563;-59
2020/12/23 07:28:12;;;;;;;1.00;0.95;;;8.00;99.90;;;;;;4386086;32;20396;-56
2020/12/23 07:30:40;;;;;;;2.20;0.85;;;8.00;99.90;;;;;;4385597;32;20109;-57
2020/12/23 07:33:07;;;;;;;1.45;0.82;;;7.90;99.90;;;;;;4386247;32;20121;-57
2020/12/23 07:35:34;;;;;;;0.30;0.30;;;7.80;99.90;;;;;;4398508;32;20074;-58
2020/12/23 07:38:01;;;;;;;0.40;0.40;;;7.90;99.90;;;;;;4398135;32;20059;-57
2020/12/23 07:40:29;;;;;;;0.32;0.32;;;7.90;99.90;;;;;;4401065;32;20066;-55
2020/12/23 07:42:56;;;;;;;0.30;0.30;;;7.90;99.90;;;;;;4401955;32;20070;-58
2020/12/23 07:45:22;;;;;;;0.70;0.70;;;7.90;99.90;;;;;;4401804;32;20066;-59
2020/12/23 07:47:59;;;;;;;0.60;0.60;;;8.00;99.90;;;;;;4399577;32;20413;-56
2020/12/23 07:50:27;;;;;;;3.78;0.85;;;8.00;99.90;;;;;;4400897;32;20499;-59
2020/12/23 07:52:53;;;;;;;7.30;1.25;;;8.10;99.90;;;;;;4399326;32;20079;-59
2020/12/23 07:55:21;;;;;;;1.42;1.27;;;8.10;99.90;;;;;;4400903;32;20057;-57
2020/12/23 07:57:49;;;;;;;0.47;0.40;;;7.90;99.90;;;;;;4391415;32;20071;-59
2020/12/23 08:00:16;;;;;;;0.30;0.30;;;8.00;99.90;;;;;;4386457;32;20074;-58
2020/12/23 08:02:42;;;;;;;11.52;0.98;;;7.90;99.90;;;;;;4386855;32;20086;-56
2020/12/23 08:05:10;;;;;;;0.55;0.55;;;7.80;99.90;;;;;;4387157;32;20563;-58
2020/12/23 08:07:39;;;;;;;0.93;0.93;;;7.80;99.90;;;;;;4401637;32;20061;-57
2020/12/23 08:10:07;;;;;;;1.17;0.95;;;7.90;99.90;;;;;;4398471;32;20775;-57
2020/12/23 08:12:33;;;;;;;4.20;0.57;;;7.90;99.90;;;;;;4386055;32;20516;-57
2020/12/23 08:14:58;;;;;;;0.50;0.50;;;7.90;99.90;;;;;;4385644;32;20074;-57
2020/12/23 08:17:24;;;;;;;0.68;0.68;;;7.90;99.90;;;;;;4390767;32;20132;-58
2020/12/23 08:20:08;;;;;;;1.37;0.98;;;7.80;99.90;;;;;;4401253;32;20078;-60
2020/12/23 08:22:35;;;;;;;1.12;0.57;;;7.80;99.90;;;;;;4400995;32;20062;-58
2020/12/23 08:25:10;;;;;;;9.13;2.85;;;7.80;99.90;;;;;;4400075;32;20065;-57
2020/12/23 08:27:37;;;;;;;0.65;0.65;;;7.90;99.90;;;;;;4400774;32;20059;-58
2020/12/23 08:30:07;;;;;;;1.42;1.08;;;7.80;99.90;;;;;;4400561;32;20062;-59
2020/12/23 08:32:36;;;;;;;2.90;1.27;;;7.90;99.90;;;;;;4400775;32;20422;-56
2020/12/23 08:35:03;;;;;;;0.30;0.30;;;7.90;99.90;;;;;;4400543;32;20065;-57
2020/12/23 08:37:29;;;;;;;0.90;0.82;;;7.90;99.90;;;;;;4399073;32;20070;-57
2020/12/23 08:39:56;;;;;;;27.15;2.50;;;7.90;99.90;;;;;;4398237;32;92701;-60
2020/12/23 08:42:22;;;;;;;0.45;0.45;;;7.90;99.90;;;;;;4400228;32;20074;-57
2020/12/23 08:44:51;;;;;;;0.50;0.45;;;7.90;99.90;;;;;;4400376;32;20069;-60
2020/12/23 08:47:24;;;;;;;0.80;0.62;;;8.00;99.90;;;;;;4400163;32;20061;-57
2020/12/23 08:49:52;;;;;;;0.40;0.40;;;8.00;99.90;;;;;;4400474;32;20500;-59
2020/12/23 08:52:20;;;;;;;1.30;1.20;;;8.00;99.90;;;;;;4387535;32;20125;-58
2020/12/23 08:54:45;;;;;;;0.82;0.73;;;8.00;99.90;;;;;;4401042;32;20120;-59
2020/12/23 08:57:15;;;;;;;0.32;0.32;;;8.00;99.90;;;;;;4399868;32;20074;-57
2020/12/23 08:59:41;;;;;;;0.30;0.30;;;8.00;99.90;;;;;;4400327;32;20510;-57
2020/12/23 09:02:11;;;;;;;0.28;0.28;;;8.00;99.90;;;;;;4399957;32;20066;-59
2020/12/23 09:04:36;;;;;;;0.40;0.40;;;8.00;99.90;;;;;;4401349;32;20093;-59
2020/12/23 09:07:02;;;;;;;2.28;1.50;;;8.10;99.90;;;;;;4387188;32;20547;-57
2020/12/23 09:09:27;;;;;;;7.50;2.22;;;8.20;99.90;;;;;;4385568;32;20082;-57
2020/12/23 09:11:54;;;;;;;1.52;0.70;;;8.20;99.90;;;;;;4397928;32;20150;-57
2020/12/23 09:14:21;;;;;;;0.47;0.47;;;8.30;99.90;;;;;;4386546;32;20070;-56
2020/12/23 09:16:57;;;;;;;0.30;0.30;;;8.40;99.90;;;;;;4400457;32;20117;-57
2020/12/23 09:19:46;;;;;;;6.68;0.55;;;8.30;99.90;;;;;;4385786;32;20083;-57
2020/12/23 09:22:33;;;;;;;0.57;0.57;;;8.20;99.90;;;;;;4385026;32;20075;-55
2020/12/23 09:25:21;;;;;;;1.35;0.52;;;8.30;99.90;;;;;;4384600;32;20070;-59
2020/12/23 09:27:49;;;;;;;0.28;0.28;;;8.40;99.90;;;;;;4383659;32;20070;-59
2020/12/23 09:30:29;;;;;;;3.45;1.92;;;8.50;99.90;;;;;;4383772;32;20082;-59
2020/12/23 09:32:54;;;;;;;0.22;0.22;;;8.40;99.90;;;;;;4384716;32;20132;-59
2020/12/23 09:35:23;;;;;;;1.48;0.93;;;8.50;99.90;;;;;;4386096;32;20067;-58
2020/12/23 09:38:01;;;;;;;0.50;0.50;;;8.40;99.90;;;;;;4384528;32;20066;-57
2020/12/23 09:40:26;;;;;;;0.32;0.32;;;8.50;99.90;;;;;;4384815;32;20083;-57
2020/12/23 09:42:51;;;;;;;0.40;0.40;;;8.50;99.90;;;;;;4385382;32;20500;-56
2020/12/23 09:45:17;;;;;;;0.30;0.30;;;8.50;99.90;;;;;;4385945;32;20473;-59
2020/12/23 09:47:43;;;;;;;3.83;1.15;;;8.60;99.90;;;;;;4385098;32;20083;-58
2020/12/23 09:50:10;;;;;;;0.43;0.43;;;8.60;99.90;;;;;;4384484;32;20082;-58
2020/12/23 09:52:35;;;;;;;3.08;1.35;;;8.60;99.90;;;;;;4384056;32;20062;-55
2020/12/23 09:55:01;;;;;;;0.70;0.70;;;8.60;99.90;;;;;;4384086;32;20513;-59
2020/12/23 09:57:26;;;;;;;0.30;0.30;;;8.60;99.90;;;;;;4394145;32;20062;-58
2020/12/23 09:59:52;;;;;;;10.82;0.98;;;8.70;99.90;;;;;;4400536;32;20093;-55
2020/12/23 10:02:17;;;;;;;1.55;0.60;;;8.80;99.90;;;;;;4398943;32;20091;-59
2020/12/23 10:04:42;;;;;;;1.23;0.57;;;8.70;99.90;;;;;;4400579;32;20082;-59
2020/12/23 10:07:09;;;;;;;0.40;0.40;;;8.50;99.90;;;;;;4387111;32;20079;-55
2020/12/23 10:09:35;;;;;;;3.78;2.12;;;8.60;99.90;;;;;;4385426;32;20083;-57
2020/12/23 10:12:01;;;;;;;16.55;0.77;;;8.60;99.90;;;;;;4398113;32;20437;-59
2020/12/23 10:14:27;;;;;;;0.73;0.73;;;8.40;99.90;;;;;;4399798;32;20075;-58
2020/12/23 10:16:53;;;;;;;0.40;0.40;;;8.30;99.90;;;;;;4399596;32;20073;-57
2020/12/23 10:19:18;;;;;;;0.30;0.30;;;8.20;99.90;;;;;;4385807;32;20418;-59
2020/12/23 10:21:44;;;;;;;25.10;0.77;;;8.20;99.90;;;;;;4385490;32;20070;-58
2020/12/23 10:24:09;;;;;;;1.08;0.80;;;8.00;99.90;;;;;;4384353;32;20066;-57
2020/12/23 10:26:34;;;;;;;0.45;0.40;;;8.10;99.90;;;;;;4383643;32;20078;-59
2020/12/23 10:29:00;;;;;;;0.50;0.50;;;8.20;99.90;;;;;;4384757;32;20102;-58
2020/12/23 10:31:25;;;;;;;1.00;0.88;;;8.10;99.90;;;;;;4385518;32;20515;-59
2020/12/23 10:33:51;;;;;;;0.73;0.73;;;8.00;99.90;;;;;;4384561;32;20093;-57
2020/12/23 10:36:16;;;;;;;2.95;2.35;;;8.00;99.90;;;;;;4383686;32;20078;-58
2020/12/23 10:38:42;;;;;;;3.33;0.77;;;8.00;99.90;;;;;;4383555;32;20078;-59
2020/12/23 10:41:09;;;;;;;0.30;0.30;;;8.00;99.90;;;;;;4385087;32;20182;-56
2020/12/23 10:43:35;;;;;;;0.35;0.35;;;8.00;99.90;;;;;;4383616;32;20083;-59
2020/12/23 10:46:00;;;;;;;0.30;0.30;;;8.10;99.90;;;;;;4384782;32;20063;-57
2020/12/23 10:48:27;;;;;;;4.30;1.37;;;8.20;99.90;;;;;;4385626;32;20524;-56
2020/12/23 10:50:52;;;;;;;12.85;1.58;;;8.20;99.90;;;;;;4384945;32;20070;-57
2020/12/23 10:53:18;;;;;;;1.75;0.95;;;8.20;99.90;;;;;;4385046;32;20070;-58
2020/12/23 10:55:43;;;;;;;1.27;0.55;;;8.20;99.90;;;;;;4384056;32;20086;-56
2020/12/23 10:58:09;;;;;;;1.85;0.80;;;8.10;99.90;;;;;;4398318;32;20412;-58
2020/12/23 11:00:35;;;;;;;0.52;0.52;;;8.10;99.90;;;;;;4398790;32;20078;-59
2020/12/23 11:03:00;;;;;;;0.40;0.40;;;8.10;99.90;;;;;;4399459;32;20078;-56
2020/12/23 11:05:26;;;;;;;1.02;0.60;;;8.00;99.90;;;;;;4396073;32;20136;-57
2020/12/23 11:07:53;;;;;;;7.97;2.08;;;8.10;99.90;;;;;;4384864;32;20082;-57
2020/12/23 11:10:19;;;;;;;0.98;0.55;;;8.10;99.90;;;;;;4386615;32;20090;-59
2020/12/23 11:12:46;;;;;;;0.40;0.40;;;8.20;99.90;;;;;;4398668;32;20079;-58
2020/12/23 11:15:12;;;;;;;2.92;1.85;;;8.20;99.90;;;;;;4399428;32;20078;-58
2020/12/23 11:17:37;;;;;;;0.60;0.60;;;8.30;99.90;;;;;;4395094;32;20456;-58
2020/12/23 11:20:03;;;;;;;0.50;0.50;;;8.30;99.90;;;;;;4384202;32;20117;-59
2020/12/23 11:22:28;;;;;;;0.62;0.62;;;8.20;99.90;;;;;;4383256;32;20074;-59
2020/12/23 11:24:54;;;;;;;0.40;0.40;;;8.40;99.90;;;;;;4383725;32;20066;-58
2020/12/23 11:27:19;;;;;;;0.55;0.55;;;8.40;99.90;;;;;;4384137;32;20054;-59
2020/12/23 11:29:45;;;;;;;3.83;1.12;;;8.40;99.90;;;;;;4384263;32;20063;-58
2020/12/23 11:32:12;;;;;;;0.70;0.70;;;8.30;99.90;;;;;;4384676;32;20070;-57
2020/12/23 11:34:37;;;;;;;4.80;2.15;;;8.30;99.90;;;;;;4384779;32;20120;-57
2020/12/23 11:37:03;;;;;;;9.80;0.95;;;8.20;99.90;;;;;;4384775;32;20497;-56
2020/12/23 11:39:28;;;;;;;0.37;0.37;;;8.20;99.90;;;;;;4384077;32;20074;-58
2020/12/23 11:41:55;;;;;;;1.35;1.10;;;8.10;99.90;;;;;;4386519;32;20118;-54
2020/12/23 11:44:21;;;;;;;2.12;1.52;;;8.20;99.90;;;;;;4384081;32;20117;-55
2020/12/23 11:46:48;;;;;;;0.50;0.50;;;8.20;99.90;;;;;;4384258;32;20090;-58
2020/12/23 11:49:14;;;;;;;1.10;0.88;;;8.20;99.90;;;;;;4370827;32;20079;-57
2020/12/23 11:51:39;;;;;;;6.95;1.17;;;8.20;99.90;;;;;;4383662;32;20473;-56
2020/12/23 11:54:05;;;;;;;1.02;0.68;;;8.20;99.90;;;;;;4384498;32;20070;-52
2020/12/23 11:56:30;;;;;;;0.60;0.60;;;8.30;99.90;;;;;;4386431;32;20069;-57
2020/12/23 11:58:56;;;;;;;2.22;0.82;;;8.30;99.90;;;;;;4399852;32;20128;-57
2020/12/23 12:01:22;;;;;;;0.22;0.22;;;8.30;99.90;;;;;;4399014;32;20117;-57
2020/12/23 12:03:47;;;;;;;1.08;0.50;;;8.40;99.90;;;;;;4399631;32;20083;-54
2020/12/23 12:06:16;;;;;;;0.65;0.65;;;8.40;99.90;;;;;;4390451;32;20170;-55
2020/12/23 12:08:42;;;;;;;1.27;1.02;;;8.40;99.90;;;;;;4386959;32;20414;-55
2020/12/23 12:11:07;;;;;;;3.70;0.80;;;8.40;99.90;;;;;;4391905;32;20117;-57
2020/12/23 12:13:33;;;;;;;0.50;0.50;;;8.40;99.90;;;;;;4399203;32;20523;-56
2020/12/23 12:15:58;;;;;;;0.35;0.35;;;8.40;99.90;;;;;;4399250;32;20125;-56
2020/12/23 12:18:24;;;;;;;0.50;0.50;;;8.40;99.90;;;;;;4388950;32;20075;-54
2020/12/23 12:20:49;;;;;;;0.35;0.35;;;8.50;99.90;;;;;;4383151;32;20063;-54
2020/12/23 12:23:15;;;;;;;0.82;0.65;;;8.60;99.90;;;;;;4383127;32;20086;-57
2020/12/23 12:25:40;;;;;;;2.58;0.77;;;8.60;99.90;;;;;;4384610;32;20070;-53
2020/12/23 12:28:06;;;;;;;0.20;0.20;;;8.50;99.90;;;;;;4386742;32;20104;-53
2020/12/23 12:30:32;;;;;;;0.60;0.60;;;8.50;99.90;;;;;;4387231;32;20082;-56
2020/12/23 12:32:58;;;;;;;0.22;0.22;;;8.50;99.90;;;;;;4385849;32;20079;-56
2020/12/23 12:35:24;;;;;;;5.60;1.48;;;8.50;99.90;;;;;;4386561;32;20070;-55
2020/12/23 12:37:49;;;;;;;0.65;0.65;;;8.50;99.90;;;;;;4386494;32;20077;-53
2020/12/23 12:40:15;;;;;;;0.40;0.40;;;8.50;99.90;;;;;;4385937;32;20113;-54
2020/12/23 12:42:40;;;;;;;5.72;1.98;;;8.50;99.90;;;;;;4386341;32;20078;-54
2020/12/23 12:45:06;;;;;;;0.40;0.40;;;8.60;99.90;;;;;;4391991;32;20514;-55
2020/12/23 12:47:31;;;;;;;0.40;0.40;;;8.50;99.90;;;;;;4401663;32;20082;-55
2020/12/23 12:49:57;;;;;;;0.73;0.73;;;8.40;99.90;;;;;;4400634;32;20098;-53
2020/12/23 12:52:22;;;;;;;5.68;0.70;;;8.50;99.90;;;;;;4398152;32;20122;-57
2020/12/23 12:54:47;;;;;;;2.37;0.77;;;8.50;99.90;;;;;;4385762;32;20070;-54
2020/12/23 12:57:13;;;;;;;22.00;0.60;;;8.60;99.90;;;;;;4393640;32;20085;-54